sensor_id;sensor_type;location;lat;lon;timestamp;temperature;humidity
65050;DHT22;52090;51.224;-2.328;2022-12-29T00:02:12;10.30;99.00
65050;DHT22;52090;51.224;-2.328;2022-12-29T00:05:55;10.30;98.70
65050;DHT22;52090;51.224;-2.328;2022-12-29T00:09:37;10.20;98.50
65050;DHT22;52090;51.224;-2.328;2022-12-29T00:13:19;10.20;98.60
65050;DHT22;52090;51.224;-2.328;2022-12-29T00:17:20;10.20;98.50
65050;DHT22;52090;51.224;-2.328;2022-12-29T00:21:01;10.10;98.40
65050;DHT22;52090;51.224;-2.328;2022-12-29T00:25:02;10.10;98.20
65050;DHT22;52090;51.224;-2.328;2022-12-29T00:29:03;10.10;98.00
65050;DHT22;52090;51.224;-2.328;2022-12-29T00:33:18;10.00;97.90
65050;DHT22;52090;51.224;-2.328;2022-12-29T00:37:19;9.90;97.10
65050;DHT22;52090;51.224;-2.328;2022-12-29T00:41:21;9.90;97.80
65050;DHT22;52090;51.224;-2.328;2022-12-29T00:45:21;9.80;97.70
65050;DHT22;52090;51.224;-2.328;2022-12-29T00:49:03;9.80;97.70
65050;DHT22;52090;51.224;-2.328;2022-12-29T00:53:04;9.70;97.90
65050;DHT22;52090;51.224;-2.328;2022-12-29T00:56:47;9.70;97.60
65050;DHT22;52090;51.224;-2.328;2022-12-29T01:00:29;9.70;97.50
65050;DHT22;52090;51.224;-2.328;2022-12-29T01:04:11;9.60;97.50
65050;DHT22;52090;51.224;-2.328;2022-12-29T01:07:53;9.60;97.50
65050;DHT22;52090;51.224;-2.328;2022-12-29T01:11:35;9.60;97.50
65050;DHT22;52090;51.224;-2.328;2022-12-29T01:15:16;9.60;97.50
65050;DHT22;52090;51.224;-2.328;2022-12-29T01:18:59;9.50;97.50
65050;DHT22;52090;51.224;-2.328;2022-12-29T01:22:40;9.50;97.50
65050;DHT22;52090;51.224;-2.328;2022-12-29T01:26:24;9.50;97.60
65050;DHT22;52090;51.224;-2.328;2022-12-29T01:30:06;9.50;97.60
65050;DHT22;52090;51.224;-2.328;2022-12-29T01:33:48;9.50;97.70
65050;DHT22;52090;51.224;-2.328;2022-12-29T01:37:29;9.50;97.90
65050;DHT22;52090;51.224;-2.328;2022-12-29T01:41:13;9.50;98.00
65050;DHT22;52090;51.224;-2.328;2022-12-29T01:44:57;9.50;98.00
65050;DHT22;52090;51.224;-2.328;2022-12-29T01:48:42;9.60;98.30
65050;DHT22;52090;51.224;-2.328;2022-12-29T01:52:27;9.70;98.60
65050;DHT22;52090;51.224;-2.328;2022-12-29T01:56:13;9.70;98.50
65050;DHT22;52090;51.224;-2.328;2022-12-29T02:00:07;9.80;98.50
65050;DHT22;52090;51.224;-2.328;2022-12-29T02:03:49;9.80;98.30
65050;DHT22;52090;51.224;-2.328;2022-12-29T02:07:32;9.90;97.80
65050;DHT22;52090;51.224;-2.328;2022-12-29T02:11:14;9.90;98.50
65050;DHT22;52090;51.224;-2.328;2022-12-29T02:15:00;9.90;98.40
65050;DHT22;52090;51.224;-2.328;2022-12-29T02:23:44;9.90;97.80
65050;DHT22;52090;51.224;-2.328;2022-12-29T02:35:44;10.00;97.80
65050;DHT22;52090;51.224;-2.328;2022-12-29T02:43:39;10.00;98.40
65050;DHT22;52090;51.224;-2.328;2022-12-29T02:47:57;10.00;98.50
65050;DHT22;52090;51.224;-2.328;2022-12-29T02:51:51;10.00;97.40
65050;DHT22;52090;51.224;-2.328;2022-12-29T02:55:34;10.10;98.50
65050;DHT22;52090;51.224;-2.328;2022-12-29T02:59:16;10.10;98.90
65050;DHT22;52090;51.224;-2.328;2022-12-29T03:07:18;10.10;97.90
65050;DHT22;52090;51.224;-2.328;2022-12-29T03:11:13;10.10;98.80
65050;DHT22;52090;51.224;-2.328;2022-12-29T03:15:32;10.10;98.60
65050;DHT22;52090;51.224;-2.328;2022-12-29T03:19:36;10.10;98.40
65050;DHT22;52090;51.224;-2.328;2022-12-29T03:23:20;10.20;98.90
65050;DHT22;52090;51.224;-2.328;2022-12-29T03:27:05;10.20;98.90
65050;DHT22;52090;51.224;-2.328;2022-12-29T03:30:48;10.10;98.90
65050;DHT22;52090;51.224;-2.328;2022-12-29T03:34:30;10.10;99.00
65050;DHT22;52090;51.224;-2.328;2022-12-29T03:38:20;10.10;99.00
65050;DHT22;52090;51.224;-2.328;2022-12-29T03:42:13;10.10;98.90
65050;DHT22;52090;51.224;-2.328;2022-12-29T03:45:55;10.10;98.80
65050;DHT22;52090;51.224;-2.328;2022-12-29T03:49:37;10.10;98.90
65050;DHT22;52090;51.224;-2.328;2022-12-29T03:53:19;10.10;98.90
65050;DHT22;52090;51.224;-2.328;2022-12-29T03:57:01;10.00;98.90
65050;DHT22;52090;51.224;-2.328;2022-12-29T04:00:43;10.00;98.90
65050;DHT22;52090;51.224;-2.328;2022-12-29T04:04:25;10.00;98.80
65050;DHT22;52090;51.224;-2.328;2022-12-29T04:08:06;10.00;98.90
65050;DHT22;52090;51.224;-2.328;2022-12-29T04:11:48;9.90;98.80
65050;DHT22;52090;51.224;-2.328;2022-12-29T04:15:30;9.90;98.60
65050;DHT22;52090;51.224;-2.328;2022-12-29T04:19:13;9.80;98.50
65050;DHT22;52090;51.224;-2.328;2022-12-29T04:23:00;9.80;98.40
65050;DHT22;52090;51.224;-2.328;2022-12-29T04:26:42;9.70;98.20
65050;DHT22;52090;51.224;-2.328;2022-12-29T04:30:24;9.70;98.30
65050;DHT22;52090;51.224;-2.328;2022-12-29T04:34:06;9.70;98.50
65050;DHT22;52090;51.224;-2.328;2022-12-29T04:37:47;9.70;98.70
65050;DHT22;52090;51.224;-2.328;2022-12-29T04:41:29;9.70;98.90
65050;DHT22;52090;51.224;-2.328;2022-12-29T04:45:11;9.70;98.80
65050;DHT22;52090;51.224;-2.328;2022-12-29T04:48:53;9.70;98.50
65050;DHT22;52090;51.224;-2.328;2022-12-29T04:52:35;9.70;98.40
65050;DHT22;52090;51.224;-2.328;2022-12-29T04:56:17;9.60;98.30
65050;DHT22;52090;51.224;-2.328;2022-12-29T04:59:59;9.60;98.60
65050;DHT22;52090;51.224;-2.328;2022-12-29T05:03:40;9.60;98.50
65050;DHT22;52090;51.224;-2.328;2022-12-29T05:07:22;9.60;98.30
65050;DHT22;52090;51.224;-2.328;2022-12-29T05:11:04;9.50;98.20
65050;DHT22;52090;51.224;-2.328;2022-12-29T05:14:46;9.50;98.20
65050;DHT22;52090;51.224;-2.328;2022-12-29T05:18:28;9.50;98.10
65050;DHT22;52090;51.224;-2.328;2022-12-29T05:22:10;9.40;98.30
65050;DHT22;52090;51.224;-2.328;2022-12-29T05:25:51;9.40;98.00
65050;DHT22;52090;51.224;-2.328;2022-12-29T05:29:33;9.30;98.00
65050;DHT22;52090;51.224;-2.328;2022-12-29T05:33:16;9.30;98.20
65050;DHT22;52090;51.224;-2.328;2022-12-29T05:36:58;9.30;98.50
65050;DHT22;52090;51.224;-2.328;2022-12-29T05:40:40;9.40;98.50
65050;DHT22;52090;51.224;-2.328;2022-12-29T05:44:22;9.40;98.40
65050;DHT22;52090;51.224;-2.328;2022-12-29T05:48:04;9.40;98.50
65050;DHT22;52090;51.224;-2.328;2022-12-29T05:51:46;9.40;98.50
65050;DHT22;52090;51.224;-2.328;2022-12-29T05:55:28;9.40;98.40
65050;DHT22;52090;51.224;-2.328;2022-12-29T05:59:09;9.30;98.40
65050;DHT22;52090;51.224;-2.328;2022-12-29T06:02:51;9.30;99.00
65050;DHT22;52090;51.224;-2.328;2022-12-29T06:06:33;9.30;98.80
65050;DHT22;52090;51.224;-2.328;2022-12-29T06:10:15;9.40;98.90
65050;DHT22;52090;51.224;-2.328;2022-12-29T06:13:57;9.40;99.00
65050;DHT22;52090;51.224;-2.328;2022-12-29T06:17:39;9.50;99.00
65050;DHT22;52090;51.224;-2.328;2022-12-29T06:21:22;9.50;99.10
65050;DHT22;52090;51.224;-2.328;2022-12-29T06:25:04;9.50;99.10
65050;DHT22;52090;51.224;-2.328;2022-12-29T06:28:46;9.60;99.20
65050;DHT22;52090;51.224;-2.328;2022-12-29T06:32:28;9.60;99.10
65050;DHT22;52090;51.224;-2.328;2022-12-29T06:36:10;9.70;99.10
65050;DHT22;52090;51.224;-2.328;2022-12-29T06:39:52;9.70;99.10
65050;DHT22;52090;51.224;-2.328;2022-12-29T06:43:33;9.70;99.10
65050;DHT22;52090;51.224;-2.328;2022-12-29T06:47:17;9.70;99.10
65050;DHT22;52090;51.224;-2.328;2022-12-29T06:51:00;9.70;99.10
65050;DHT22;52090;51.224;-2.328;2022-12-29T06:54:41;9.70;99.00
65050;DHT22;52090;51.224;-2.328;2022-12-29T06:58:23;9.70;99.00
65050;DHT22;52090;51.224;-2.328;2022-12-29T07:02:05;9.70;98.90
65050;DHT22;52090;51.224;-2.328;2022-12-29T07:05:47;9.70;99.00
65050;DHT22;52090;51.224;-2.328;2022-12-29T07:09:29;9.70;98.90
65050;DHT22;52090;51.224;-2.328;2022-12-29T07:13:10;9.60;99.00
65050;DHT22;52090;51.224;-2.328;2022-12-29T07:16:52;9.60;98.70
65050;DHT22;52090;51.224;-2.328;2022-12-29T07:20:34;9.60;98.70
65050;DHT22;52090;51.224;-2.328;2022-12-29T07:24:16;9.50;98.70
65050;DHT22;52090;51.224;-2.328;2022-12-29T07:27:58;9.60;98.80
65050;DHT22;52090;51.224;-2.328;2022-12-29T07:31:40;9.50;98.90
65050;DHT22;52090;51.224;-2.328;2022-12-29T07:35:22;9.50;98.90
65050;DHT22;52090;51.224;-2.328;2022-12-29T07:39:03;9.50;98.90
65050;DHT22;52090;51.224;-2.328;2022-12-29T07:42:45;9.60;99.00
65050;DHT22;52090;51.224;-2.328;2022-12-29T07:46:27;9.60;99.00
65050;DHT22;52090;51.224;-2.328;2022-12-29T07:50:29;9.60;99.00
65050;DHT22;52090;51.224;-2.328;2022-12-29T07:54:10;9.60;99.00
65050;DHT22;52090;51.224;-2.328;2022-12-29T07:57:54;9.60;99.00
65050;DHT22;52090;51.224;-2.328;2022-12-29T08:01:36;9.60;98.40
65050;DHT22;52090;51.224;-2.328;2022-12-29T08:05:18;9.60;98.90
65050;DHT22;52090;51.224;-2.328;2022-12-29T08:09:00;9.60;98.80
65050;DHT22;52090;51.224;-2.328;2022-12-29T08:12:54;9.60;98.80
65050;DHT22;52090;51.224;-2.328;2022-12-29T08:16:35;9.60;98.80
65050;DHT22;52090;51.224;-2.328;2022-12-29T08:20:17;9.50;98.80
65050;DHT22;52090;51.224;-2.328;2022-12-29T08:23:59;9.50;98.80
65050;DHT22;52090;51.224;-2.328;2022-12-29T08:27:41;9.50;98.60
65050;DHT22;52090;51.224;-2.328;2022-12-29T08:31:23;9.50;98.50
65050;DHT22;52090;51.224;-2.328;2022-12-29T08:35:05;9.50;98.50
65050;DHT22;52090;51.224;-2.328;2022-12-29T08:38:47;9.50;98.50
65050;DHT22;52090;51.224;-2.328;2022-12-29T08:42:32;9.50;98.50
65050;DHT22;52090;51.224;-2.328;2022-12-29T08:46:16;9.40;98.20
65050;DHT22;52090;51.224;-2.328;2022-12-29T08:49:58;9.40;98.20
65050;DHT22;52090;51.224;-2.328;2022-12-29T08:53:40;9.40;98.00
65050;DHT22;52090;51.224;-2.328;2022-12-29T08:57:21;9.30;98.00
65050;DHT22;52090;51.224;-2.328;2022-12-29T09:01:04;9.30;98.20
65050;DHT22;52090;51.224;-2.328;2022-12-29T09:04:46;9.30;98.20
65050;DHT22;52090;51.224;-2.328;2022-12-29T09:08:28;9.30;98.20
65050;DHT22;52090;51.224;-2.328;2022-12-29T09:12:09;9.30;98.20
65050;DHT22;52090;51.224;-2.328;2022-12-29T09:15:58;9.30;98.10
65050;DHT22;52090;51.224;-2.328;2022-12-29T09:19:40;9.30;97.60
65050;DHT22;52090;51.224;-2.328;2022-12-29T09:23:23;9.20;98.20
65050;DHT22;52090;51.224;-2.328;2022-12-29T09:27:05;9.30;98.20
65050;DHT22;52090;51.224;-2.328;2022-12-29T09:30:47;9.30;98.50
65050;DHT22;52090;51.224;-2.328;2022-12-29T09:34:29;9.30;98.20
65050;DHT22;52090;51.224;-2.328;2022-12-29T09:38:11;9.40;98.20
65050;DHT22;52090;51.224;-2.328;2022-12-29T09:42:15;9.40;98.10
65050;DHT22;52090;51.224;-2.328;2022-12-29T09:46:26;9.40;96.50
65050;DHT22;52090;51.224;-2.328;2022-12-29T09:50:22;9.30;96.40
65050;DHT22;52090;51.224;-2.328;2022-12-29T09:54:30;9.20;97.00
65050;DHT22;52090;51.224;-2.328;2022-12-29T09:58:24;9.20;96.40
65050;DHT22;52090;51.224;-2.328;2022-12-29T10:02:29;9.20;97.50
65050;DHT22;52090;51.224;-2.328;2022-12-29T10:10:12;9.30;97.40
65050;DHT22;52090;51.224;-2.328;2022-12-29T10:26:03;9.50;98.40
65050;DHT22;52090;51.224;-2.328;2022-12-29T10:29:53;9.50;98.40
65050;DHT22;52090;51.224;-2.328;2022-12-29T10:33:41;9.50;97.20
65050;DHT22;52090;51.224;-2.328;2022-12-29T10:41:53;9.50;96.40
65050;DHT22;52090;51.224;-2.328;2022-12-29T10:45:37;9.40;97.20
65050;DHT22;52090;51.224;-2.328;2022-12-29T10:49:26;9.50;98.20
65050;DHT22;52090;51.224;-2.328;2022-12-29T10:53:15;9.50;97.60
65050;DHT22;52090;51.224;-2.328;2022-12-29T10:57:05;9.50;97.90
65050;DHT22;52090;51.224;-2.328;2022-12-29T11:00:52;9.60;98.20
65050;DHT22;52090;51.224;-2.328;2022-12-29T11:08:37;9.70;97.50
65050;DHT22;52090;51.224;-2.328;2022-12-29T11:12:25;9.70;98.00
65050;DHT22;52090;51.224;-2.328;2022-12-29T11:16:11;9.70;97.70
65050;DHT22;52090;51.224;-2.328;2022-12-29T11:19:53;9.70;97.80
65050;DHT22;52090;51.224;-2.328;2022-12-29T11:23:37;9.70;98.30
65050;DHT22;52090;51.224;-2.328;2022-12-29T11:27:26;9.70;98.20
65050;DHT22;52090;51.224;-2.328;2022-12-29T11:31:08;9.80;97.40
65050;DHT22;52090;51.224;-2.328;2022-12-29T11:34:51;9.80;98.40
65050;DHT22;52090;51.224;-2.328;2022-12-29T11:38:50;9.80;98.40
65050;DHT22;52090;51.224;-2.328;2022-12-29T11:46:22;9.90;97.80
65050;DHT22;52090;51.224;-2.328;2022-12-29T11:50:07;9.90;98.10
65050;DHT22;52090;51.224;-2.328;2022-12-29T11:53:52;9.90;98.10
65050;DHT22;52090;51.224;-2.328;2022-12-29T11:57:35;9.90;97.90
65050;DHT22;52090;51.224;-2.328;2022-12-29T12:01:33;9.90;98.00
65050;DHT22;52090;51.224;-2.328;2022-12-29T12:09:19;9.80;97.50
65050;DHT22;52090;51.224;-2.328;2022-12-29T12:13:14;9.80;96.30
65050;DHT22;52090;51.224;-2.328;2022-12-29T12:20:56;9.80;97.80
65050;DHT22;52090;51.224;-2.328;2022-12-29T12:24:48;9.80;96.20
65050;DHT22;52090;51.224;-2.328;2022-12-29T12:32:50;9.80;96.10
65050;DHT22;52090;51.224;-2.328;2022-12-29T12:40:54;9.80;95.80
65050;DHT22;52090;51.224;-2.328;2022-12-29T12:45:04;9.80;97.80
65050;DHT22;52090;51.224;-2.328;2022-12-29T12:49:05;9.80;95.90
65050;DHT22;52090;51.224;-2.328;2022-12-29T12:57:05;9.80;96.60
65050;DHT22;52090;51.224;-2.328;2022-12-29T13:05:29;9.90;95.70
65050;DHT22;52090;51.224;-2.328;2022-12-29T13:29:46;9.80;95.90
65050;DHT22;52090;51.224;-2.328;2022-12-29T13:37:26;9.90;96.80
65050;DHT22;52090;51.224;-2.328;2022-12-29T13:41:14;10.00;97.60
65050;DHT22;52090;51.224;-2.328;2022-12-29T13:45:01;10.00;97.80
65050;DHT22;52090;51.224;-2.328;2022-12-29T13:52:39;10.00;96.80
65050;DHT22;52090;51.224;-2.328;2022-12-29T13:56:43;10.00;96.80
65050;DHT22;52090;51.224;-2.328;2022-12-29T14:00:31;10.00;96.20
65050;DHT22;52090;51.224;-2.328;2022-12-29T14:04:22;10.00;97.40
65050;DHT22;52090;51.224;-2.328;2022-12-29T14:08:05;10.00;96.60
65050;DHT22;52090;51.224;-2.328;2022-12-29T14:11:55;9.90;97.40
65050;DHT22;52090;51.224;-2.328;2022-12-29T14:15:40;9.90;97.60
65050;DHT22;52090;51.224;-2.328;2022-12-29T14:19:30;9.90;97.20
65050;DHT22;52090;51.224;-2.328;2022-12-29T14:26:54;9.90;97.80
65050;DHT22;52090;51.224;-2.328;2022-12-29T14:30:51;9.90;97.90
65050;DHT22;52090;51.224;-2.328;2022-12-29T14:34:39;9.80;96.00
65050;DHT22;52090;51.224;-2.328;2022-12-29T14:38:26;9.80;97.10
65050;DHT22;52090;51.224;-2.328;2022-12-29T14:42:14;9.90;97.60
65050;DHT22;52090;51.224;-2.328;2022-12-29T14:46:01;9.80;97.20
65050;DHT22;52090;51.224;-2.328;2022-12-29T14:49:44;9.80;97.10
65050;DHT22;52090;51.224;-2.328;2022-12-29T14:53:46;9.70;97.00
65050;DHT22;52090;51.224;-2.328;2022-12-29T14:57:38;9.70;95.30
65050;DHT22;52090;51.224;-2.328;2022-12-29T15:05:34;9.50;95.40
65050;DHT22;52090;51.224;-2.328;2022-12-29T15:09:33;9.40;95.10
65050;DHT22;52090;51.224;-2.328;2022-12-29T15:13:23;9.30;95.30
65050;DHT22;52090;51.224;-2.328;2022-12-29T15:17:33;9.20;96.10
65050;DHT22;52090;51.224;-2.328;2022-12-29T15:21:14;9.20;96.00
65050;DHT22;52090;51.224;-2.328;2022-12-29T15:24:57;9.10;96.40
65050;DHT22;52090;51.224;-2.328;2022-12-29T15:28:45;9.00;96.30
65050;DHT22;52090;51.224;-2.328;2022-12-29T15:32:29;9.00;95.80
65050;DHT22;52090;51.224;-2.328;2022-12-29T15:36:14;9.00;96.20
65050;DHT22;52090;51.224;-2.328;2022-12-29T15:39:56;8.90;96.10
65050;DHT22;52090;51.224;-2.328;2022-12-29T15:43:51;8.90;96.50
65050;DHT22;52090;51.224;-2.328;2022-12-29T15:47:34;8.90;96.20
65050;DHT22;52090;51.224;-2.328;2022-12-29T15:51:31;8.90;96.80
65050;DHT22;52090;51.224;-2.328;2022-12-29T15:59:04;9.00;96.40
65050;DHT22;52090;51.224;-2.328;2022-12-29T16:02:46;9.00;97.30
65050;DHT22;52090;51.224;-2.328;2022-12-29T16:06:33;9.00;96.90
65050;DHT22;52090;51.224;-2.328;2022-12-29T16:10:42;9.00;96.10
65050;DHT22;52090;51.224;-2.328;2022-12-29T16:14:38;8.90;94.80
65050;DHT22;52090;51.224;-2.328;2022-12-29T16:18:32;8.90;95.60
65050;DHT22;52090;51.224;-2.328;2022-12-29T16:22:31;8.70;95.20
65050;DHT22;52090;51.224;-2.328;2022-12-29T16:26:19;8.60;95.10
65050;DHT22;52090;51.224;-2.328;2022-12-29T16:30:28;8.60;95.40
65050;DHT22;52090;51.224;-2.328;2022-12-29T16:34:33;8.50;95.10
65050;DHT22;52090;51.224;-2.328;2022-12-29T16:38:20;8.40;94.90
65050;DHT22;52090;51.224;-2.328;2022-12-29T16:42:45;8.30;95.00
65050;DHT22;52090;51.224;-2.328;2022-12-29T16:46:32;8.20;94.60
65050;DHT22;52090;51.224;-2.328;2022-12-29T16:50:18;8.10;95.30
65050;DHT22;52090;51.224;-2.328;2022-12-29T16:54:23;8.10;95.00
65050;DHT22;52090;51.224;-2.328;2022-12-29T16:58:05;8.00;94.80
65050;DHT22;52090;51.224;-2.328;2022-12-29T17:01:53;8.00;95.20
65050;DHT22;52090;51.224;-2.328;2022-12-29T17:05:35;7.90;95.30
65050;DHT22;52090;51.224;-2.328;2022-12-29T17:09:18;7.80;95.40
65050;DHT22;52090;51.224;-2.328;2022-12-29T17:13:00;7.80;95.50
65050;DHT22;52090;51.224;-2.328;2022-12-29T17:16:42;7.80;95.50
65050;DHT22;52090;51.224;-2.328;2022-12-29T17:20:26;7.80;95.60
65050;DHT22;52090;51.224;-2.328;2022-12-29T17:24:17;7.80;95.50
65050;DHT22;52090;51.224;-2.328;2022-12-29T17:28:02;7.70;95.40
65050;DHT22;52090;51.224;-2.328;2022-12-29T17:31:45;7.70;95.80
65050;DHT22;52090;51.224;-2.328;2022-12-29T17:35:27;7.70;95.60
65050;DHT22;52090;51.224;-2.328;2022-12-29T17:39:09;7.70;95.60
65050;DHT22;52090;51.224;-2.328;2022-12-29T17:42:55;7.60;95.60
65050;DHT22;52090;51.224;-2.328;2022-12-29T17:46:37;7.60;95.50
65050;DHT22;52090;51.224;-2.328;2022-12-29T17:50:22;7.60;95.90
65050;DHT22;52090;51.224;-2.328;2022-12-29T17:54:05;7.60;95.60
65050;DHT22;52090;51.224;-2.328;2022-12-29T17:57:47;7.50;95.70
65050;DHT22;52090;51.224;-2.328;2022-12-29T18:01:29;7.50;95.70
65050;DHT22;52090;51.224;-2.328;2022-12-29T18:05:22;7.50;95.70
65050;DHT22;52090;51.224;-2.328;2022-12-29T18:09:04;7.50;95.70
65050;DHT22;52090;51.224;-2.328;2022-12-29T18:12:50;7.50;95.80
65050;DHT22;52090;51.224;-2.328;2022-12-29T18:16:33;7.40;95.80
65050;DHT22;52090;51.224;-2.328;2022-12-29T18:20:15;7.50;95.90
65050;DHT22;52090;51.224;-2.328;2022-12-29T18:23:57;7.50;95.90
65050;DHT22;52090;51.224;-2.328;2022-12-29T18:27:39;7.50;95.90
65050;DHT22;52090;51.224;-2.328;2022-12-29T18:31:27;7.50;95.90
65050;DHT22;52090;51.224;-2.328;2022-12-29T18:35:16;7.40;95.90
65050;DHT22;52090;51.224;-2.328;2022-12-29T18:38:59;7.40;95.70
65050;DHT22;52090;51.224;-2.328;2022-12-29T18:42:41;7.40;95.90
65050;DHT22;52090;51.224;-2.328;2022-12-29T18:46:22;7.40;95.90
65050;DHT22;52090;51.224;-2.328;2022-12-29T18:50:04;7.30;95.90
65050;DHT22;52090;51.224;-2.328;2022-12-29T18:53:47;7.30;95.90
65050;DHT22;52090;51.224;-2.328;2022-12-29T18:57:29;7.40;96.30
65050;DHT22;52090;51.224;-2.328;2022-12-29T19:01:23;7.30;96.00
65050;DHT22;52090;51.224;-2.328;2022-12-29T19:05:20;7.30;95.70
65050;DHT22;52090;51.224;-2.328;2022-12-29T19:09:02;7.30;95.80
65050;DHT22;52090;51.224;-2.328;2022-12-29T19:12:44;7.20;96.00
65050;DHT22;52090;51.224;-2.328;2022-12-29T19:16:26;7.20;95.90
65050;DHT22;52090;51.224;-2.328;2022-12-29T19:20:32;7.20;96.00
65050;DHT22;52090;51.224;-2.328;2022-12-29T19:24:13;7.10;95.90
65050;DHT22;52090;51.224;-2.328;2022-12-29T19:27:56;7.10;96.00
65050;DHT22;52090;51.224;-2.328;2022-12-29T19:31:38;7.10;96.00
65050;DHT22;52090;51.224;-2.328;2022-12-29T19:35:21;7.10;96.10
65050;DHT22;52090;51.224;-2.328;2022-12-29T19:39:03;7.10;96.20
65050;DHT22;52090;51.224;-2.328;2022-12-29T19:42:45;7.00;96.00
65050;DHT22;52090;51.224;-2.328;2022-12-29T19:46:27;7.00;96.00
65050;DHT22;52090;51.224;-2.328;2022-12-29T19:50:12;7.00;96.00
65050;DHT22;52090;51.224;-2.328;2022-12-29T19:53:56;6.90;95.90
65050;DHT22;52090;51.224;-2.328;2022-12-29T19:57:38;6.90;95.80
65050;DHT22;52090;51.224;-2.328;2022-12-29T20:01:21;6.80;95.80
65050;DHT22;52090;51.224;-2.328;2022-12-29T20:05:04;6.80;95.70
65050;DHT22;52090;51.224;-2.328;2022-12-29T20:08:46;6.70;95.60
65050;DHT22;52090;51.224;-2.328;2022-12-29T20:12:28;6.70;95.70
65050;DHT22;52090;51.224;-2.328;2022-12-29T20:16:13;6.60;95.80
65050;DHT22;52090;51.224;-2.328;2022-12-29T20:19:55;6.60;95.80
65050;DHT22;52090;51.224;-2.328;2022-12-29T20:23:38;6.60;95.90
65050;DHT22;52090;51.224;-2.328;2022-12-29T20:27:20;6.50;95.80
65050;DHT22;52090;51.224;-2.328;2022-12-29T20:31:11;6.60;95.90
65050;DHT22;52090;51.224;-2.328;2022-12-29T20:34:54;6.60;95.90
65050;DHT22;52090;51.224;-2.328;2022-12-29T20:38:36;6.60;96.20
65050;DHT22;52090;51.224;-2.328;2022-12-29T20:42:18;6.60;95.90
65050;DHT22;52090;51.224;-2.328;2022-12-29T20:46:01;6.50;96.00
65050;DHT22;52090;51.224;-2.328;2022-12-29T20:49:43;6.50;96.00
65050;DHT22;52090;51.224;-2.328;2022-12-29T20:53:27;6.60;96.10
65050;DHT22;52090;51.224;-2.328;2022-12-29T20:57:09;6.50;96.10
65050;DHT22;52090;51.224;-2.328;2022-12-29T21:00:51;6.50;96.10
65050;DHT22;52090;51.224;-2.328;2022-12-29T21:04:33;6.50;96.10
65050;DHT22;52090;51.224;-2.328;2022-12-29T21:08:35;6.50;96.10
65050;DHT22;52090;51.224;-2.328;2022-12-29T21:12:18;6.50;96.10
65050;DHT22;52090;51.224;-2.328;2022-12-29T21:16:07;6.50;96.10
65050;DHT22;52090;51.224;-2.328;2022-12-29T21:19:49;6.50;96.10
65050;DHT22;52090;51.224;-2.328;2022-12-29T21:23:31;6.50;96.10
65050;DHT22;52090;51.224;-2.328;2022-12-29T21:27:13;6.40;96.10
65050;DHT22;52090;51.224;-2.328;2022-12-29T21:30:55;6.40;96.20
65050;DHT22;52090;51.224;-2.328;2022-12-29T21:34:37;6.50;96.20
65050;DHT22;52090;51.224;-2.328;2022-12-29T21:38:19;6.40;96.20
65050;DHT22;52090;51.224;-2.328;2022-12-29T21:42:00;6.40;96.20
65050;DHT22;52090;51.224;-2.328;2022-12-29T21:45:48;6.40;96.20
65050;DHT22;52090;51.224;-2.328;2022-12-29T21:49:30;6.40;96.10
65050;DHT22;52090;51.224;-2.328;2022-12-29T21:53:12;6.40;96.20
65050;DHT22;52090;51.224;-2.328;2022-12-29T21:56:54;6.40;96.20
65050;DHT22;52090;51.224;-2.328;2022-12-29T22:00:36;6.40;96.20
65050;DHT22;52090;51.224;-2.328;2022-12-29T22:04:36;6.30;96.20
65050;DHT22;52090;51.224;-2.328;2022-12-29T22:08:37;6.30;96.20
65050;DHT22;52090;51.224;-2.328;2022-12-29T22:12:38;6.30;96.30
65050;DHT22;52090;51.224;-2.328;2022-12-29T22:16:39;6.30;96.40
65050;DHT22;52090;51.224;-2.328;2022-12-29T22:20:23;6.30;96.40
65050;DHT22;52090;51.224;-2.328;2022-12-29T22:24:06;6.30;96.50
65050;DHT22;52090;51.224;-2.328;2022-12-29T22:27:49;6.30;96.60
65050;DHT22;52090;51.224;-2.328;2022-12-29T22:31:39;6.30;96.70
65050;DHT22;52090;51.224;-2.328;2022-12-29T22:35:21;6.30;96.70
65050;DHT22;52090;51.224;-2.328;2022-12-29T22:39:02;6.30;96.80
65050;DHT22;52090;51.224;-2.328;2022-12-29T22:42:44;6.30;96.90
65050;DHT22;52090;51.224;-2.328;2022-12-29T22:46:26;6.30;96.90
65050;DHT22;52090;51.224;-2.328;2022-12-29T22:50:08;6.40;97.00
65050;DHT22;52090;51.224;-2.328;2022-12-29T22:53:50;6.40;97.00
65050;DHT22;52090;51.224;-2.328;2022-12-29T22:57:33;6.40;97.10
65050;DHT22;52090;51.224;-2.328;2022-12-29T23:01:16;6.40;97.10
65050;DHT22;52090;51.224;-2.328;2022-12-29T23:04:58;6.40;97.20
65050;DHT22;52090;51.224;-2.328;2022-12-29T23:08:44;6.40;97.20
65050;DHT22;52090;51.224;-2.328;2022-12-29T23:12:28;6.40;97.30
65050;DHT22;52090;51.224;-2.328;2022-12-29T23:16:12;6.40;97.30
65050;DHT22;52090;51.224;-2.328;2022-12-29T23:19:54;6.40;97.40
65050;DHT22;52090;51.224;-2.328;2022-12-29T23:23:36;6.50;97.40
65050;DHT22;52090;51.224;-2.328;2022-12-29T23:27:36;6.50;97.40
65050;DHT22;52090;51.224;-2.328;2022-12-29T23:31:19;6.50;97.30
65050;DHT22;52090;51.224;-2.328;2022-12-29T23:35:01;6.50;97.40
65050;DHT22;52090;51.224;-2.328;2022-12-29T23:38:43;6.40;97.60
65050;DHT22;52090;51.224;-2.328;2022-12-29T23:42:25;6.50;97.80
65050;DHT22;52090;51.224;-2.328;2022-12-29T23:46:22;6.60;97.90
65050;DHT22;52090;51.224;-2.328;2022-12-29T23:50:04;6.60;98.10
65050;DHT22;52090;51.224;-2.328;2022-12-29T23:53:47;6.60;98.00
65050;DHT22;52090;51.224;-2.328;2022-12-29T23:57:29;6.70;98.00
